createdAt,value
2023-10-01T00:02:16.027Z,36.23
2023-10-01T00:04:33.844Z,36.26
2023-10-01T00:06:48.425Z,36.16
2023-10-01T00:09:11.881Z,36.34
2023-10-01T00:11:27.861Z,36.34
2023-10-01T00:13:43.907Z,36.42
2023-10-01T00:16:06.637Z,36.48
2023-10-01T00:18:32.097Z,36.58
2023-10-01T00:20:54.727Z,36.50
2023-10-01T00:23:22.844Z,36.37
2023-10-01T00:25:37.617Z,36.50
2023-10-01T00:27:53.499Z,36.45
2023-10-01T00:30:06.761Z,36.61
2023-10-01T00:32:24.036Z,36.51
2023-10-01T00:34:40.122Z,36.56
2023-10-01T00:36:53.351Z,36.51
2023-10-01T00:39:19.856Z,36.48
2023-10-01T00:41:38.821Z,36.45
2023-10-01T00:43:54.645Z,36.55
2023-10-01T00:46:27.653Z,36.79
2023-10-01T00:48:40.706Z,36.78
2023-10-01T00:51:02.193Z,37.02
2023-10-01T00:53:15.361Z,36.92
2023-10-01T00:55:39.641Z,37.13
2023-10-01T00:57:52.979Z,37.35
2023-10-01T01:00:28.127Z,37.33
2023-10-01T01:02:48.633Z,37.53
2023-10-01T01:05:22.298Z,37.39
2023-10-01T01:07:38.842Z,37.71
2023-10-01T01:09:55.191Z,37.59
2023-10-01T01:12:19.550Z,37.71
2023-10-01T01:14:35.894Z,37.85
2023-10-01T01:16:54.245Z,37.94
2023-10-01T01:19:06.852Z,38.16
2023-10-01T01:21:44.301Z,38.10
2023-10-01T01:24:19.139Z,38.27
2023-10-01T01:26:54.082Z,38.46
2023-10-01T01:29:19.575Z,38.63
2023-10-01T01:31:47.270Z,38.60
2023-10-01T01:34:01.544Z,38.79
2023-10-01T01:36:15.196Z,38.94
2023-10-01T01:38:28.108Z,39.06
2023-10-01T01:40:42.585Z,39.06
2023-10-01T01:42:58.317Z,39.12
2023-10-01T01:45:21.632Z,39.27
2023-10-01T01:47:37.486Z,39.27
2023-10-01T01:50:00.973Z,39.40
2023-10-01T01:52:13.499Z,39.49
2023-10-01T01:54:33.365Z,39.60
2023-10-01T01:56:48.191Z,39.73
2023-10-01T01:59:15.143Z,39.88
2023-10-01T02:01:37.906Z,39.97
2023-10-01T02:03:55.620Z,39.98
2023-10-01T02:06:11.429Z,40.13
2023-10-01T02:08:37.311Z,40.19
2023-10-01T02:10:52.684Z,40.36
2023-10-01T02:13:09.584Z,40.49
2023-10-01T02:15:22.456Z,40.60
2023-10-01T02:17:37.189Z,40.68
2023-10-01T02:19:53.613Z,40.77
2023-10-01T02:22:07.954Z,40.95
2023-10-01T02:24:32.866Z,41.08
2023-10-01T02:26:49.451Z,41.13
2023-10-01T02:29:05.370Z,41.25
2023-10-01T02:31:28.337Z,41.32
2023-10-01T02:33:59.033Z,41.42
2023-10-01T02:36:15.019Z,41.57
2023-10-01T02:38:47.835Z,41.74
2023-10-01T02:41:02.827Z,41.89
2023-10-01T02:43:18.644Z,42.01
2023-10-01T02:45:43.643Z,42.10
2023-10-01T02:48:15.403Z,42.29
2023-10-01T02:50:31.969Z,42.47
2023-10-01T02:52:57.523Z,42.70
2023-10-01T02:55:21.519Z,42.65
2023-10-01T02:57:35.766Z,42.72
2023-10-01T03:00:04.534Z,42.92
2023-10-01T03:02:27.246Z,43.11
2023-10-01T03:04:40.223Z,43.22
2023-10-01T03:07:16.834Z,43.50
2023-10-01T03:09:37.801Z,43.53
2023-10-01T03:11:49.249Z,43.71
2023-10-01T03:14:21.910Z,43.83
2023-10-01T03:16:47.458Z,43.91
2023-10-01T03:19:20.116Z,44.09
2023-10-01T03:22:01.406Z,44.22
2023-10-01T03:24:35.396Z,44.39
2023-10-01T03:26:51.590Z,44.43
2023-10-01T03:29:24.135Z,44.48
2023-10-01T03:31:58.201Z,44.58
2023-10-01T03:34:32.511Z,44.72
2023-10-01T03:37:05.664Z,44.86
2023-10-01T03:39:27.737Z,44.92
2023-10-01T03:41:57.250Z,45.05
2023-10-01T03:44:13.937Z,45.04
2023-10-01T03:46:44.934Z,45.08
2023-10-01T03:49:05.929Z,45.33
2023-10-01T03:51:18.922Z,45.40
2023-10-01T03:53:41.601Z,45.53
2023-10-01T03:55:57.234Z,45.61
2023-10-01T03:58:20.566Z,45.76
2023-10-01T04:00:43.196Z,45.82
2023-10-01T04:02:56.020Z,45.89
2023-10-01T04:05:32.982Z,46.13
2023-10-01T04:07:46.362Z,46.34
2023-10-01T04:10:03.955Z,46.39
2023-10-01T04:12:22.908Z,46.49
2023-10-01T04:14:35.502Z,46.67
2023-10-01T04:16:49.072Z,46.62
2023-10-01T04:19:02.235Z,46.90
2023-10-01T04:21:27.317Z,46.94
2023-10-01T04:23:51.290Z,46.99
2023-10-01T04:26:08.446Z,47.03
2023-10-01T04:28:25.322Z,47.06
2023-10-01T04:30:41.525Z,47.12
2023-10-01T04:32:57.294Z,47.22
2023-10-01T04:35:20.325Z,47.23
2023-10-01T04:37:43.433Z,47.45
2023-10-01T04:39:59.863Z,47.46
2023-10-01T04:42:13.101Z,47.60
2023-10-01T04:44:30.120Z,47.64
2023-10-01T04:46:48.205Z,47.70
2023-10-01T04:49:36.610Z,47.88
2023-10-01T04:51:54.599Z,48.00
2023-10-01T04:54:09.269Z,48.19
2023-10-01T04:56:25.190Z,48.22
2023-10-01T04:58:43.340Z,48.33
2023-10-01T05:01:00.560Z,48.43
2023-10-01T05:03:16.774Z,48.53
2023-10-01T05:05:29.590Z,48.67
2023-10-01T05:07:53.384Z,48.73
2023-10-01T05:10:11.722Z,48.87
2023-10-01T05:12:33.673Z,48.89
2023-10-01T05:15:01.898Z,49.05
2023-10-01T05:17:18.544Z,49.18
2023-10-01T05:19:43.934Z,49.46
2023-10-01T05:22:05.830Z,49.57
2023-10-01T05:24:36.529Z,49.66
2023-10-01T05:27:11.667Z,49.75
2023-10-01T05:29:27.654Z,49.87
2023-10-01T05:32:01.511Z,50.08
2023-10-01T05:34:17.662Z,50.09
2023-10-01T05:36:31.821Z,50.16
2023-10-01T05:38:56.136Z,50.20
2023-10-01T05:41:11.800Z,50.45
2023-10-01T05:43:29.736Z,50.48
2023-10-01T05:45:43.520Z,50.73
2023-10-01T05:48:12.858Z,50.76
2023-10-01T05:50:31.228Z,51.08
2023-10-01T05:52:47.017Z,51.08
2023-10-01T05:55:21.869Z,51.16
2023-10-01T05:57:38.077Z,51.36
2023-10-01T06:00:02.314Z,51.59
2023-10-01T06:02:49.530Z,51.76
2023-10-01T06:05:22.578Z,51.93
2023-10-01T06:07:35.571Z,52.17
2023-10-01T06:09:59.907Z,52.24
2023-10-01T06:12:13.810Z,52.34
2023-10-01T06:14:43.375Z,52.32
2023-10-01T06:17:02.549Z,52.46
2023-10-01T06:19:36.418Z,52.67
2023-10-01T06:21:52.490Z,52.81
2023-10-01T06:24:09.389Z,52.95
2023-10-01T06:26:31.575Z,52.98
2023-10-01T06:28:44.427Z,53.45
2023-10-01T06:31:18.526Z,53.45
2023-10-01T06:33:38.175Z,53.62
2023-10-01T06:36:23.387Z,54.05
2023-10-01T06:38:36.115Z,54.16
2023-10-01T06:40:59.137Z,54.29
2023-10-01T06:43:12.033Z,54.54
2023-10-01T06:45:46.366Z,54.52
2023-10-01T06:48:11.215Z,54.86
2023-10-01T06:50:26.895Z,54.85
2023-10-01T06:52:44.566Z,55.16
2023-10-01T06:55:00.040Z,55.46
2023-10-01T06:57:19.288Z,55.36
2023-10-01T06:59:38.417Z,55.67
2023-10-01T07:01:52.354Z,55.78
2023-10-01T07:04:05.636Z,55.85
2023-10-01T07:06:38.352Z,55.98
2023-10-01T07:09:06.435Z,56.18
2023-10-01T07:11:39.302Z,56.29
2023-10-01T07:13:54.570Z,56.61
2023-10-01T07:16:21.132Z,56.79
2023-10-01T07:18:33.793Z,56.87
2023-10-01T07:21:06.301Z,56.95
2023-10-01T07:23:23.764Z,57.10
2023-10-01T07:25:49.519Z,57.29
2023-10-01T07:28:05.791Z,57.32
2023-10-01T07:30:41.384Z,57.60
2023-10-01T07:32:58.607Z,57.67
2023-10-01T07:35:16.904Z,57.85
2023-10-01T07:37:33.824Z,57.94
2023-10-01T07:40:11.291Z,58.03
2023-10-01T07:42:25.125Z,58.19
2023-10-01T07:44:58.708Z,58.26
2023-10-01T07:47:30.413Z,58.54
2023-10-01T07:49:51.007Z,58.60
2023-10-01T07:52:14.683Z,58.69
2023-10-01T07:54:30.967Z,58.68
2023-10-01T07:56:52.155Z,58.78
2023-10-01T07:59:18.331Z,58.90
2023-10-01T08:02:09.931Z,59.06
2023-10-01T08:04:38.577Z,59.29
2023-10-01T08:06:51.961Z,59.40
2023-10-01T08:09:24.437Z,59.49
2023-10-01T08:12:11.509Z,59.70
2023-10-01T08:14:24.513Z,59.81
2023-10-01T08:16:50.135Z,59.97
2023-10-01T08:19:07.824Z,60.09
2023-10-01T08:21:33.427Z,60.17
2023-10-01T08:24:01.015Z,60.23
2023-10-01T08:26:26.474Z,60.22
2023-10-01T08:28:56.762Z,60.41
2023-10-01T08:31:31.067Z,60.55
2023-10-01T08:33:44.789Z,60.84
2023-10-01T08:36:03.487Z,60.88
2023-10-01T08:38:17.844Z,61.01
2023-10-01T08:40:31.869Z,61.17
2023-10-01T08:42:49.951Z,61.30
2023-10-01T08:45:07.690Z,61.25
2023-10-01T08:47:33.767Z,61.49
2023-10-01T08:50:00.006Z,61.52
2023-10-01T08:52:27.996Z,61.58
2023-10-01T08:55:01.214Z,61.63
2023-10-01T08:57:19.436Z,61.65
2023-10-01T08:59:43.733Z,61.68
2023-10-01T09:01:59.923Z,61.82
2023-10-01T09:04:46.907Z,61.81
2023-10-01T09:07:06.215Z,61.90
2023-10-01T09:09:28.918Z,61.88
2023-10-01T09:11:55.846Z,62.28
2023-10-01T09:14:23.390Z,62.58
2023-10-01T09:16:45.219Z,62.82
2023-10-01T09:19:31.169Z,63.21
2023-10-01T09:21:45.937Z,63.12
2023-10-01T09:24:14.517Z,63.15
2023-10-01T09:26:44.673Z,63.05
2023-10-01T09:29:15.573Z,62.91
2023-10-01T09:31:28.934Z,62.93
2023-10-01T09:33:42.240Z,62.95
2023-10-01T09:36:01.815Z,63.11
2023-10-01T09:38:29.568Z,62.84
2023-10-01T09:40:44.309Z,63.02
2023-10-01T09:42:59.374Z,63.04
2023-10-01T09:45:37.519Z,63.23
2023-10-01T09:47:59.255Z,63.51
2023-10-01T09:50:34.044Z,63.58
2023-10-01T09:52:52.777Z,63.54
2023-10-01T09:55:26.944Z,63.30
2023-10-01T09:57:50.356Z,63.53
2023-10-01T10:00:23.174Z,63.74
2023-10-01T10:02:57.350Z,63.80
2023-10-01T10:05:26.825Z,63.73
2023-10-01T10:07:43.484Z,63.76
2023-10-01T10:09:58.717Z,64.01
2023-10-01T10:12:37.043Z,64.21
2023-10-01T10:15:00.720Z,64.16
2023-10-01T10:17:53.621Z,64.39
2023-10-01T10:20:41.151Z,64.43
2023-10-01T10:23:18.822Z,64.70
2023-10-01T10:25:52.125Z,64.87
2023-10-01T10:28:08.702Z,64.78
2023-10-01T10:30:24.166Z,64.65
2023-10-01T10:32:44.734Z,64.89
2023-10-01T10:35:25.259Z,64.72
2023-10-01T10:37:55.738Z,65.13
2023-10-01T10:40:15.670Z,65.02
2023-10-01T10:42:32.178Z,65.16
2023-10-01T10:45:26.560Z,65.10
2023-10-01T10:48:00.883Z,65.09
2023-10-01T10:50:17.669Z,65.16
2023-10-01T10:52:37.112Z,65.51
2023-10-01T10:54:49.722Z,65.36
2023-10-01T10:57:07.323Z,65.47
2023-10-01T10:59:19.730Z,65.33
2023-10-01T11:01:45.738Z,65.30
2023-10-01T11:03:59.463Z,65.31
2023-10-01T11:06:25.969Z,65.27
2023-10-01T11:08:38.755Z,65.38
2023-10-01T11:10:52.745Z,65.32
2023-10-01T11:13:05.909Z,65.58
2023-10-01T11:15:26.075Z,65.53
2023-10-01T11:17:42.854Z,65.46
2023-10-01T11:20:00.457Z,65.65
2023-10-01T11:22:14.032Z,65.63
2023-10-01T11:24:32.138Z,65.89
2023-10-01T11:27:24.936Z,66.16
2023-10-01T11:29:37.599Z,65.91
2023-10-01T11:31:56.633Z,65.89
2023-10-01T11:34:24.213Z,65.96
2023-10-01T11:36:41.723Z,66.07
2023-10-01T11:38:54.593Z,65.92
2023-10-01T11:41:11.920Z,66.15
2023-10-01T11:43:34.959Z,66.15
2023-10-01T11:45:50.496Z,66.28
2023-10-01T11:48:19.770Z,66.45
2023-10-01T11:50:32.189Z,66.27
2023-10-01T11:52:45.701Z,66.29
2023-10-01T11:54:58.460Z,66.55
2023-10-01T11:57:11.473Z,66.59
2023-10-01T11:59:25.150Z,66.72
2023-10-01T12:01:49.615Z,66.69
2023-10-01T12:04:02.770Z,66.74
2023-10-01T12:06:15.487Z,66.78
2023-10-01T12:08:37.442Z,66.76
2023-10-01T12:10:53.579Z,66.83
2023-10-01T12:13:09.341Z,66.95
2023-10-01T12:15:45.474Z,66.94
2023-10-01T12:17:59.703Z,66.96
2023-10-01T12:20:24.424Z,67.24
2023-10-01T12:22:37.547Z,67.19
2023-10-01T12:24:51.639Z,67.19
2023-10-01T12:27:09.647Z,67.22
2023-10-01T12:29:22.772Z,67.38
2023-10-01T12:31:35.968Z,67.36
2023-10-01T12:33:50.111Z,67.45
2023-10-01T12:36:05.576Z,67.25
2023-10-01T12:38:27.322Z,67.10
2023-10-01T12:40:40.048Z,67.19
2023-10-01T12:42:54.190Z,67.29
2023-10-01T12:45:15.810Z,67.50
2023-10-01T12:47:43.145Z,67.57
2023-10-01T12:50:01.438Z,67.53
2023-10-01T12:52:16.591Z,67.72
2023-10-01T12:54:29.848Z,67.78
2023-10-01T12:56:50.616Z,67.86
2023-10-01T12:59:02.999Z,67.87
2023-10-01T13:01:34.046Z,67.80
2023-10-01T13:03:47.423Z,67.80
2023-10-01T13:06:07.568Z,67.77
2023-10-01T13:08:31.208Z,67.81
2023-10-01T13:10:53.639Z,67.91
2023-10-01T13:13:09.616Z,67.88
2023-10-01T13:15:32.540Z,68.00
2023-10-01T13:17:47.549Z,67.92
2023-10-01T13:20:20.501Z,67.98
2023-10-01T13:22:33.490Z,68.03
2023-10-01T13:24:56.270Z,68.17
2023-10-01T13:27:18.745Z,68.06
2023-10-01T13:29:32.787Z,68.13
2023-10-01T13:31:45.764Z,68.00
2023-10-01T13:34:09.005Z,68.03
2023-10-01T13:36:37.522Z,68.25
2023-10-01T13:39:15.763Z,68.03
2023-10-01T13:41:44.824Z,68.40
2023-10-01T13:44:13.851Z,68.43
2023-10-01T13:46:43.651Z,68.43
2023-10-01T13:49:13.207Z,68.65
2023-10-01T13:51:57.504Z,68.67
2023-10-01T13:54:27.881Z,68.76
2023-10-01T13:56:57.092Z,68.70
2023-10-01T13:59:26.897Z,68.92
2023-10-01T14:01:56.548Z,69.08
2023-10-01T14:04:27.153Z,69.14
2023-10-01T14:06:56.344Z,69.23
2023-10-01T14:09:12.523Z,69.31
2023-10-01T14:11:42.176Z,69.44
2023-10-01T14:13:54.691Z,69.51
2023-10-01T14:16:19.839Z,69.74
2023-10-01T14:18:37.972Z,69.86
2023-10-01T14:20:50.821Z,69.93
2023-10-01T14:23:03.607Z,70.17
2023-10-01T14:25:22.804Z,70.21
2023-10-01T14:27:35.333Z,70.16
2023-10-01T14:29:51.016Z,70.17
2023-10-01T14:32:12.822Z,70.36
2023-10-01T14:34:25.788Z,70.35
2023-10-01T14:36:41.891Z,70.40
2023-10-01T14:39:00.870Z,70.36
2023-10-01T14:41:17.979Z,70.39
2023-10-01T14:43:30.841Z,70.46
2023-10-01T14:45:46.834Z,70.60
2023-10-01T14:48:00.631Z,70.69
2023-10-01T14:50:17.263Z,70.75
2023-10-01T14:52:30.053Z,70.85
2023-10-01T14:54:43.713Z,71.07
2023-10-01T14:56:59.212Z,71.14
2023-10-01T14:59:11.812Z,71.32
2023-10-01T15:01:24.294Z,71.25
2023-10-01T15:03:37.758Z,71.42
2023-10-01T15:05:50.513Z,71.60
2023-10-01T15:08:03.087Z,71.68
2023-10-01T15:10:18.153Z,71.92
2023-10-01T15:12:32.429Z,71.85
2023-10-01T15:15:02.668Z,71.96
2023-10-01T15:17:26.832Z,72.20
2023-10-01T15:19:50.135Z,72.37
2023-10-01T15:22:10.759Z,72.48
2023-10-01T15:24:24.819Z,72.55
2023-10-01T15:26:45.690Z,72.49
2023-10-01T15:28:58.407Z,72.59
2023-10-01T15:31:15.265Z,72.71
2023-10-01T15:33:29.721Z,72.71
2023-10-01T15:35:45.653Z,73.07
2023-10-01T15:38:01.037Z,73.04
2023-10-01T15:40:27.604Z,72.88
2023-10-01T15:42:40.256Z,73.00
2023-10-01T15:44:55.890Z,73.16
2023-10-01T15:47:08.435Z,73.23
2023-10-01T15:49:23.579Z,73.04
2023-10-01T15:51:36.278Z,73.24
2023-10-01T15:53:49.128Z,73.09
2023-10-01T15:56:04.788Z,73.05
2023-10-01T15:58:17.557Z,73.34
2023-10-01T16:00:32.051Z,73.38
2023-10-01T16:02:45.207Z,73.23
2023-10-01T16:05:01.912Z,73.45
2023-10-01T16:07:15.188Z,73.37
2023-10-01T16:09:27.974Z,73.50
2023-10-01T16:11:40.324Z,73.40
2023-10-01T16:13:58.104Z,73.47
2023-10-01T16:16:12.408Z,73.23
2023-10-01T16:18:26.305Z,73.47
2023-10-01T16:20:39.388Z,73.25
2023-10-01T16:22:54.158Z,73.26
2023-10-01T16:25:12.916Z,73.21
2023-10-01T16:27:29.731Z,73.25
2023-10-01T16:29:45.533Z,73.63
2023-10-01T16:31:59.663Z,73.68
2023-10-01T16:34:12.181Z,73.49
2023-10-01T16:36:28.530Z,73.45
2023-10-01T16:38:41.935Z,73.05
2023-10-01T16:40:54.375Z,73.20
2023-10-01T16:43:16.752Z,73.53
2023-10-01T16:45:31.572Z,73.57
2023-10-01T16:47:54.442Z,73.45
2023-10-01T16:50:16.577Z,72.89
2023-10-01T16:52:29.672Z,72.40
2023-10-01T16:54:45.115Z,71.86
2023-10-01T16:57:00.499Z,70.87
2023-10-01T16:59:14.535Z,70.66
2023-10-01T17:01:28.874Z,69.73
2023-10-01T17:03:41.632Z,69.52
2023-10-01T17:05:54.231Z,68.56
2023-10-01T17:08:06.775Z,68.01
2023-10-01T17:10:21.297Z,67.00
2023-10-01T17:12:33.715Z,66.09
2023-10-01T17:14:49.244Z,65.19
2023-10-01T17:17:05.700Z,64.82
2023-10-01T17:19:31.034Z,64.24
2023-10-01T17:21:45.472Z,63.63
2023-10-01T17:23:59.527Z,62.86
2023-10-01T17:26:12.162Z,63.03
2023-10-01T17:28:53.676Z,62.21
2023-10-01T17:31:09.545Z,61.27
2023-10-01T17:33:22.114Z,60.52
2023-10-01T17:35:36.966Z,60.13
2023-10-01T17:37:52.714Z,59.65
2023-10-01T17:40:19.665Z,59.46
2023-10-01T17:42:32.132Z,58.62
2023-10-01T17:44:45.907Z,57.89
2023-10-01T17:47:01.620Z,57.46
2023-10-01T17:49:19.185Z,57.23
2023-10-01T17:51:33.937Z,56.81
2023-10-01T17:53:53.100Z,56.27
2023-10-01T17:56:06.567Z,55.68
2023-10-01T17:58:26.544Z,55.49
2023-10-01T18:00:41.860Z,55.20
2023-10-01T18:03:02.987Z,54.99
2023-10-01T18:05:21.851Z,54.70
2023-10-01T18:07:36.421Z,54.32
2023-10-01T18:09:54.124Z,53.77
2023-10-01T18:12:19.871Z,53.19
2023-10-01T18:14:35.718Z,53.15
2023-10-01T18:16:49.547Z,52.77
2023-10-01T18:19:08.984Z,52.44
2023-10-01T18:21:22.178Z,52.15
2023-10-01T18:23:36.118Z,51.55
2023-10-01T18:25:56.940Z,50.92
2023-10-01T18:28:11.282Z,50.37
2023-10-01T18:30:25.264Z,49.93
2023-10-01T18:32:39.807Z,49.72
2023-10-01T18:34:53.123Z,49.61
2023-10-01T18:37:06.974Z,49.64
2023-10-01T18:39:28.384Z,49.43
2023-10-01T18:41:43.072Z,49.10
2023-10-01T18:43:56.076Z,48.87
2023-10-01T18:46:08.920Z,48.19
2023-10-01T18:48:21.653Z,47.79
2023-10-01T18:50:34.042Z,47.58
2023-10-01T18:52:46.442Z,46.78
2023-10-01T18:54:59.550Z,46.63
2023-10-01T18:57:12.160Z,46.52
2023-10-01T18:59:28.464Z,46.50
2023-10-01T19:01:41.946Z,46.43
2023-10-01T19:03:54.334Z,46.16
2023-10-01T19:06:08.409Z,45.82
2023-10-01T19:08:23.838Z,46.09
2023-10-01T19:10:40.669Z,46.48
2023-10-01T19:12:52.974Z,46.89
2023-10-01T19:15:18.376Z,46.07
2023-10-01T19:17:31.324Z,45.22
2023-10-01T19:19:44.944Z,43.92
2023-10-01T19:21:57.865Z,43.86
2023-10-01T19:24:18.171Z,43.89
2023-10-01T19:26:31.724Z,44.13
2023-10-01T19:28:45.281Z,43.62
2023-10-01T19:30:58.074Z,42.79
2023-10-01T19:33:11.108Z,43.11
2023-10-01T19:35:25.390Z,43.76
2023-10-01T19:37:47.157Z,43.70
2023-10-01T19:40:00.881Z,43.62
2023-10-01T19:42:17.842Z,43.33
2023-10-01T19:44:32.116Z,42.65
2023-10-01T19:46:44.834Z,41.87
2023-10-01T19:48:58.249Z,41.68
2023-10-01T19:51:12.048Z,41.53
2023-10-01T19:53:27.828Z,41.37
2023-10-01T19:55:40.638Z,41.53
2023-10-01T19:57:54.753Z,41.32
2023-10-01T20:00:19.233Z,40.94
2023-10-01T20:02:37.775Z,41.10
2023-10-01T20:04:51.325Z,41.06
2023-10-01T20:07:11.589Z,40.72
2023-10-01T20:09:35.350Z,40.89
2023-10-01T20:11:50.119Z,40.97
2023-10-01T20:14:04.684Z,40.91
2023-10-01T20:16:17.287Z,41.16
2023-10-01T20:18:31.456Z,40.80
2023-10-01T20:20:44.044Z,40.33
2023-10-01T20:22:58.734Z,40.42
2023-10-01T20:25:14.434Z,40.23
2023-10-01T20:27:29.951Z,40.04
2023-10-01T20:29:42.866Z,40.13
2023-10-01T20:31:56.669Z,40.20
2023-10-01T20:34:09.885Z,39.82
2023-10-01T20:36:27.926Z,39.98
2023-10-01T20:38:43.074Z,39.77
2023-10-01T20:40:56.784Z,39.61
2023-10-01T20:43:10.802Z,39.32
2023-10-01T20:45:34.722Z,39.03
2023-10-01T20:47:49.367Z,38.67
2023-10-01T20:50:01.766Z,38.23
2023-10-01T20:52:14.504Z,38.00
2023-10-01T20:54:27.121Z,37.88
2023-10-01T20:56:41.145Z,38.30
2023-10-01T20:58:53.949Z,38.50
2023-10-01T21:01:15.875Z,38.50
2023-10-01T21:03:29.477Z,38.70
2023-10-01T21:05:42.324Z,38.79
2023-10-01T21:07:55.052Z,38.74
2023-10-01T21:10:20.180Z,38.77
2023-10-01T21:12:35.212Z,38.82
2023-10-01T21:14:50.240Z,39.12
2023-10-01T21:17:07.686Z,39.05
2023-10-01T21:19:21.055Z,38.90
2023-10-01T21:21:34.280Z,38.77
2023-10-01T21:23:48.748Z,38.68
2023-10-01T21:26:01.406Z,39.07
2023-10-01T21:28:15.242Z,38.74
2023-10-01T21:30:32.708Z,38.52
2023-10-01T21:32:47.171Z,38.35
2023-10-01T21:34:59.918Z,38.36
2023-10-01T21:37:18.631Z,38.35
2023-10-01T21:39:34.845Z,38.91
2023-10-01T21:41:51.940Z,39.01
2023-10-01T21:44:04.861Z,38.87
2023-10-01T21:46:27.419Z,39.00
2023-10-01T21:48:40.475Z,38.96
2023-10-01T21:51:00.612Z,38.88
2023-10-01T21:53:32.308Z,38.78
2023-10-01T21:55:45.220Z,38.54
2023-10-01T21:58:03.790Z,38.32
2023-10-01T22:00:37.190Z,38.21
2023-10-01T22:03:06.136Z,38.20
2023-10-01T22:05:19.192Z,38.37
2023-10-01T22:07:32.118Z,38.34
2023-10-01T22:09:46.107Z,38.19
2023-10-01T22:12:00.446Z,38.37
2023-10-01T22:14:17.657Z,37.97
2023-10-01T22:16:36.059Z,37.96
2023-10-01T22:18:51.518Z,37.71
2023-10-01T22:21:08.531Z,37.57
2023-10-01T22:23:23.277Z,37.72
2023-10-01T22:25:36.396Z,37.47
2023-10-01T22:27:49.832Z,37.18
2023-10-01T22:30:03.452Z,36.89
2023-10-01T22:32:16.060Z,36.96
2023-10-01T22:34:30.947Z,37.02
2023-10-01T22:36:48.966Z,36.83
2023-10-01T22:39:02.426Z,36.49
2023-10-01T22:41:17.846Z,36.50
2023-10-01T22:43:32.330Z,36.40
2023-10-01T22:45:51.461Z,36.50
2023-10-01T22:48:19.752Z,36.73
2023-10-01T22:50:33.018Z,36.92
2023-10-01T22:52:48.469Z,36.64
2023-10-01T22:55:01.224Z,36.71
2023-10-01T22:57:14.968Z,36.54
2023-10-01T22:59:29.381Z,36.12
2023-10-01T23:01:42.434Z,35.99
2023-10-01T23:03:54.755Z,35.80
2023-10-01T23:06:08.046Z,35.92
2023-10-01T23:08:20.973Z,36.04
2023-10-01T23:10:33.716Z,36.39
2023-10-01T23:12:46.281Z,36.59
2023-10-01T23:15:00.786Z,36.54
2023-10-01T23:17:33.696Z,36.37
2023-10-01T23:19:55.426Z,36.24
2023-10-01T23:22:12.779Z,36.12
2023-10-01T23:24:43.311Z,36.28
2023-10-01T23:26:59.167Z,36.17
2023-10-01T23:29:21.666Z,36.22
2023-10-01T23:31:35.832Z,36.41
2023-10-01T23:33:52.843Z,36.33
2023-10-01T23:36:11.433Z,36.18
2023-10-01T23:38:31.577Z,36.03
2023-10-01T23:40:44.861Z,36.08
2023-10-01T23:42:57.451Z,36.28
2023-10-01T23:45:10.796Z,36.32
2023-10-01T23:47:30.712Z,36.27
2023-10-01T23:49:44.397Z,36.42
2023-10-01T23:52:04.503Z,36.41
2023-10-01T23:54:22.419Z,36.49
2023-10-01T23:56:35.234Z,36.40
2023-10-01T23:58:48.783Z,36.51
